Time;durP1;ratioP1;P1;durP2;ratioP2;P2;SDS_P1;SDS_P2;PMS_P1;PMS_P2;Temp;Humidity;BMP_temperature;BMP_pressure;BME280_temperature;BME280_humidity;BME280_pressure;Samples;Min_cycle;Max_cycle;Signal;HPM_P1;HPM_P2
2022/02/19 00:02:13;;;;;;;10.82;2.95;;;;;;;7.77;75.49;98966.28;4994093;28;20196;-76
2022/02/19 00:04:41;;;;;;;8.93;2.80;;;;;;;7.88;74.10;98969.22;4993702;28;20223;-77
2022/02/19 00:07:08;;;;;;;9.93;2.80;;;;;;;7.72;73.86;98992.47;4993669;28;20203;-76
2022/02/19 00:09:35;;;;;;;9.02;2.85;;;;;;;7.77;74.43;98990.41;4993103;28;20205;-76
2022/02/19 00:12:01;;;;;;;14.52;3.83;;;;;;;7.73;73.05;98995.09;4993199;28;20284;-76
2022/02/19 00:14:28;;;;;;;9.68;3.17;;;;;;;7.66;73.72;98988.31;4992592;28;20367;-76
2022/02/19 00:16:55;;;;;;;6.78;2.90;;;;;;;7.61;74.51;98989.53;4992929;28;20202;-76
2022/02/19 00:19:21;;;;;;;10.00;3.05;;;;;;;7.58;73.03;98995.09;4992949;28;20223;-76
2022/02/19 00:21:49;;;;;;;10.95;2.75;;;;;;;7.56;72.62;99005.00;4993212;28;20487;-76
2022/02/19 00:24:16;;;;;;;12.68;3.53;;;;;;;7.51;72.01;98998.09;4993078;28;20655;-76
2022/02/19 00:26:43;;;;;;;13.98;3.42;;;;;;;7.55;71.97;99004.13;4993331;28;20199;-76
2022/02/19 00:29:09;;;;;;;14.70;3.72;;;;;;;7.52;71.81;99013.19;4993468;28;20545;-76
2022/02/19 00:31:36;;;;;;;8.52;3.10;;;;;;;7.57;71.34;99020.13;4992580;28;20281;-75
2022/02/19 00:34:02;;;;;;;10.80;2.83;;;;;;;7.58;71.34;99025.41;4992687;28;20184;-76
2022/02/19 00:36:29;;;;;;;7.97;3.03;;;;;;;7.61;70.36;99040.44;4992896;28;20199;-75
2022/02/19 00:38:58;;;;;;;13.68;3.70;;;;;;;7.66;69.21;99039.22;4993023;28;20656;-76
2022/02/19 00:41:24;;;;;;;18.77;3.35;;;;;;;7.63;68.81;99044.75;4990829;28;20200;-76
2022/02/19 00:43:51;;;;;;;14.00;2.97;;;;;;;7.60;69.11;99055.66;4993198;28;20208;-76
2022/02/19 00:46:18;;;;;;;13.40;4.25;;;;;;;7.50;69.57;99060.63;4992385;28;20289;-76
2022/02/19 00:48:45;;;;;;;10.20;3.70;;;;;;;7.59;68.53;99061.94;4992885;28;20559;-75
2022/02/19 00:51:12;;;;;;;11.00;2.83;;;;;;;7.62;68.29;99061.81;4992759;28;20712;-76
2022/02/19 00:53:38;;;;;;;13.50;2.80;;;;;;;7.70;67.95;99064.06;4992533;28;20677;-75
2022/02/19 00:56:09;;;;;;;15.35;3.53;;;;;;;7.64;67.74;99067.94;4992295;28;20187;-75
2022/02/19 00:58:36;;;;;;;11.93;3.47;;;;;;;7.52;68.25;99066.78;4991607;28;20195;-77
2022/02/19 01:01:02;;;;;;;19.13;3.95;;;;;;;7.50;68.13;99071.34;4992659;28;20286;-76
2022/02/19 01:03:30;;;;;;;10.27;3.15;;;;;;;7.54;67.66;99072.06;4991725;28;20215;-77
2022/02/19 01:05:56;;;;;;;12.20;2.92;;;;;;;7.40;67.65;99083.53;4992507;28;20215;-76
2022/02/19 01:08:23;;;;;;;8.38;3.13;;;;;;;7.34;67.46;99085.66;4992129;28;20290;-78
2022/02/19 01:10:49;;;;;;;13.80;4.30;;;;;;;7.35;68.07;99079.34;4992791;28;20689;-76
2022/02/19 01:13:18;;;;;;;12.35;3.20;;;;;;;7.36;68.49;99083.78;4992047;28;20234;-75
2022/02/19 01:15:44;;;;;;;9.82;3.30;;;;;;;7.32;68.23;99086.59;4991616;28;20235;-76
2022/02/19 01:18:11;;;;;;;5.88;3.13;;;;;;;7.32;68.07;99089.25;4992062;28;20190;-76
2022/02/19 01:20:41;;;;;;;7.97;3.10;;;;;;;7.38;68.76;99103.31;4992483;28;20283;-76
2022/02/19 01:23:08;;;;;;;11.82;2.40;;;;;;;7.32;68.38;99072.34;4992110;28;20191;-76
2022/02/19 01:25:35;;;;;;;7.90;2.92;;;;;;;7.25;68.03;99089.69;4991026;28;20634;-75
2022/02/19 01:28:02;;;;;;;14.55;3.28;;;;;;;7.23;69.09;99087.06;4991653;28;20564;-75
2022/02/19 01:30:30;;;;;;;8.00;2.20;;;;;;;7.29;68.61;99093.94;4992130;28;20286;-76
2022/02/19 01:32:56;;;;;;;9.40;2.90;;;;;;;7.25;68.77;99095.91;4992282;28;20271;-76
2022/02/19 01:35:23;;;;;;;10.63;2.90;;;;;;;7.25;69.34;99093.22;4991557;28;20198;-77
2022/02/19 01:37:50;;;;;;;7.32;2.65;;;;;;;7.26;69.52;99094.97;4991757;28;20191;-77
2022/02/19 01:40:17;;;;;;;10.15;2.78;;;;;;;7.32;69.76;99091.94;4992070;28;20207;-77
2022/02/19 01:42:44;;;;;;;10.90;3.25;;;;;;;7.23;69.74;99095.09;4992048;28;20638;-76
2022/02/19 01:45:13;;;;;;;9.20;3.17;;;;;;;7.25;70.41;99095.91;4991479;28;20310;-77
2022/02/19 01:47:41;;;;;;;8.02;2.42;;;;;;;7.10;71.09;99094.03;4992252;28;20199;-76
2022/02/19 01:50:09;;;;;;;6.28;2.20;;;;;;;7.21;71.27;99091.69;4991793;28;20187;-77
2022/02/19 01:52:37;;;;;;;12.50;2.97;;;;;;;7.09;72.11;99101.19;4991402;28;20278;-77
2022/02/19 01:55:05;;;;;;;13.35;3.42;;;;;;;7.12;71.88;99112.69;4991372;28;20231;-77
2022/02/19 01:57:32;;;;;;;10.35;2.85;;;;;;;7.03;72.68;99100.63;4991711;28;20585;-76
2022/02/19 01:59:59;;;;;;;12.30;3.15;;;;;;;6.96;73.44;99091.19;4991753;28;20564;-76
2022/02/19 02:02:26;;;;;;;11.23;3.30;;;;;;;6.86;74.29;99105.06;4991712;28;20195;-76
2022/02/19 02:04:54;;;;;;;12.73;4.05;;;;;;;6.75;74.96;99112.75;4991821;28;20688;-76
2022/02/19 02:07:22;;;;;;;15.35;3.22;;;;;;;6.69;75.96;99110.38;4992101;28;20608;-76
2022/02/19 02:09:49;;;;;;;10.95;3.17;;;;;;;6.68;76.77;99130.06;4991472;28;20227;-76
2022/02/19 02:12:16;;;;;;;10.55;3.08;;;;;;;6.65;76.67;99107.00;4991395;28;20552;-76
2022/02/19 02:14:43;;;;;;;8.43;3.22;;;;;;;6.56;77.00;99111.97;4991962;28;20697;-76
2022/02/19 02:17:12;;;;;;;9.98;2.97;;;;;;;6.67;76.78;99122.97;4991720;28;20721;-76
2022/02/19 02:19:40;;;;;;;7.50;2.80;;;;;;;6.59;77.41;99117.13;4992099;28;20195;-77
2022/02/19 02:22:11;;;;;;;12.65;2.85;;;;;;;6.47;78.41;99132.84;4991860;28;20266;-76
2022/02/19 02:24:38;;;;;;;14.05;3.05;;;;;;;6.42;78.72;99129.53;4991644;28;20238;-76
2022/02/19 02:27:07;;;;;;;7.78;2.67;;;;;;;6.40;78.87;99135.88;4991821;28;20301;-76
2022/02/19 02:29:41;;;;;;;10.90;3.05;;;;;;;6.46;78.66;99141.81;4991562;28;20254;-75
2022/02/19 02:32:08;;;;;;;8.75;2.75;;;;;;;6.44;78.35;99143.72;4991637;28;20206;-75
2022/02/19 02:34:35;;;;;;;12.55;2.60;;;;;;;6.57;77.77;99148.44;4991845;28;20202;-76
2022/02/19 02:37:01;;;;;;;8.85;2.63;;;;;;;6.50;77.89;99139.84;4993118;28;20196;-76
2022/02/19 02:39:29;;;;;;;12.48;2.72;;;;;;;6.53;77.59;99152.22;4995148;28;20195;-77
2022/02/19 02:41:56;;;;;;;11.98;3.05;;;;;;;6.45;77.68;99156.13;4994767;28;20192;-76
2022/02/19 02:44:22;;;;;;;9.02;2.70;;;;;;;6.43;77.47;99163.34;4995578;28;20732;-76
2022/02/19 02:46:50;;;;;;;11.77;2.40;;;;;;;6.47;77.59;99174.78;4995293;28;20215;-76
2022/02/19 02:49:16;;;;;;;8.45;2.55;;;;;;;6.43;77.32;99179.41;4995261;28;20551;-77
2022/02/19 02:51:43;;;;;;;8.55;3.05;;;;;;;6.40;77.93;99167.97;4994792;28;20203;-76
2022/02/19 02:54:10;;;;;;;9.07;2.85;;;;;;;6.47;77.73;99181.00;4994918;28;20231;-76
2022/02/19 02:56:38;;;;;;;13.02;2.85;;;;;;;6.42;77.49;99175.00;4994365;28;20565;-76
2022/02/19 02:59:04;;;;;;;10.82;2.90;;;;;;;6.30;77.77;99174.72;4994758;28;20191;-76
2022/02/19 03:01:31;;;;;;;9.38;2.55;;;;;;;6.28;78.01;99176.59;4994278;28;20214;-76
2022/02/19 03:03:57;;;;;;;7.80;2.65;;;;;;;6.31;78.04;99171.09;4994523;28;20234;-77
2022/02/19 03:06:24;;;;;;;10.88;2.92;;;;;;;6.38;77.39;99170.75;4994421;28;20299;-76
2022/02/19 03:08:51;;;;;;;8.90;2.03;;;;;;;6.36;76.77;99183.31;4994225;28;20210;-77
2022/02/19 03:11:17;;;;;;;6.32;2.10;;;;;;;6.39;76.87;99185.84;4994627;28;20199;-76
2022/02/19 03:13:46;;;;;;;10.13;2.00;;;;;;;6.26;76.60;99190.03;4994451;28;20553;-76
2022/02/19 03:16:13;;;;;;;12.75;2.65;;;;;;;6.12;77.75;99189.81;4994832;28;20193;-76
2022/02/19 03:18:39;;;;;;;6.25;2.10;;;;;;;6.10;77.53;99202.38;4994247;28;20195;-77
2022/02/19 03:21:06;;;;;;;10.25;3.42;;;;;;;6.04;78.61;99198.19;4994275;28;20638;-76
2022/02/19 03:23:33;;;;;;;4.13;2.20;;;;;;;6.11;78.99;99217.50;4994482;28;20278;-76
2022/02/19 03:26:00;;;;;;;9.52;2.30;;;;;;;6.10;79.10;99202.38;4994097;28;20211;-75
2022/02/19 03:28:28;;;;;;;7.80;2.30;;;;;;;6.20;77.83;99211.72;4994592;28;20275;-76
2022/02/19 03:30:56;;;;;;;6.40;2.40;;;;;;;6.13;78.17;99229.84;4994332;28;20200;-76
2022/02/19 03:33:22;;;;;;;7.13;2.03;;;;;;;6.06;79.50;99233.75;4993973;28;20270;-76
2022/02/19 03:35:49;;;;;;;8.68;1.98;;;;;;;6.09;79.33;99243.41;4986133;28;20200;-76
2022/02/19 03:38:16;;;;;;;8.70;2.15;;;;;;;6.11;79.11;99239.72;4993782;28;20230;-76
2022/02/19 03:40:43;;;;;;;7.68;2.83;;;;;;;6.10;79.22;99240.66;4994059;28;20191;-76
2022/02/19 03:43:09;;;;;;;5.60;2.10;;;;;;;6.21;79.23;99254.41;4994146;28;20196;-76
2022/02/19 03:45:37;;;;;;;13.40;2.80;;;;;;;6.13;79.86;99253.00;4993623;28;20233;-76
2022/02/19 03:48:06;;;;;;;8.45;2.55;;;;;;;6.21;78.92;99265.09;4991407;28;20192;-76
2022/02/19 03:50:33;;;;;;;14.13;2.65;;;;;;;6.17;79.09;99274.22;4993518;28;20202;-76
2022/02/19 03:53:00;;;;;;;8.88;1.92;;;;;;;6.14;79.12;99277.00;4993664;28;20239;-76
2022/02/19 03:55:26;;;;;;;8.23;2.47;;;;;;;6.12;80.06;99275.34;4993521;28;20282;-76
2022/02/19 03:57:53;;;;;;;10.13;2.80;;;;;;;6.13;79.56;99285.09;4993737;28;20282;-76
2022/02/19 04:00:19;;;;;;;8.82;2.35;;;;;;;6.14;79.39;99286.84;4993700;28;20270;-76
2022/02/19 04:02:46;;;;;;;6.65;2.15;;;;;;;6.14;79.92;99300.22;4993753;28;20259;-76
2022/02/19 04:05:15;;;;;;;15.95;2.55;;;;;;;6.11;79.98;99289.66;4993447;28;20321;-76
2022/02/19 04:07:42;;;;;;;9.45;2.50;;;;;;;6.16;79.43;99293.84;4986916;28;20278;-76
2022/02/19 04:10:10;;;;;;;6.65;2.40;;;;;;;6.12;79.11;99304.75;4993399;28;20289;-76
2022/02/19 04:12:37;;;;;;;9.38;3.20;;;;;;;6.08;79.86;99311.16;4986057;28;20197;-76
2022/02/19 04:15:04;;;;;;;11.48;3.15;;;;;;;6.10;80.09;99315.50;4993726;28;20294;-76
2022/02/19 04:17:31;;;;;;;5.45;2.35;;;;;;;6.05;79.87;99325.53;4992694;28;20544;-76
2022/02/19 04:19:57;;;;;;;15.27;2.70;;;;;;;6.00;80.64;99319.53;4993658;28;20190;-76
2022/02/19 04:22:25;;;;;;;14.00;2.20;;;;;;;5.99;80.03;99332.03;4993168;28;20557;-76
2022/02/19 04:24:52;;;;;;;10.05;2.50;;;;;;;5.99;80.42;99345.41;4993261;28;20676;-76
2022/02/19 04:27:20;;;;;;;12.77;2.45;;;;;;;5.93;80.88;99345.63;4993038;28;20282;-76
2022/02/19 04:29:47;;;;;;;8.15;2.03;;;;;;;5.90;81.12;99344.88;4993501;28;20190;-76
2022/02/19 04:32:15;;;;;;;9.80;2.58;;;;;;;5.96;81.12;99350.84;4993136;28;20641;-76
2022/02/19 04:34:42;;;;;;;6.65;2.28;;;;;;;5.85;81.51;99350.41;4993385;28;20192;-76
2022/02/19 04:37:08;;;;;;;7.07;3.08;;;;;;;5.82;81.41;99347.88;4992555;28;20637;-76
2022/02/19 04:39:36;;;;;;;9.35;2.45;;;;;;;5.77;82.12;99347.22;4993032;28;20199;-75
2022/02/19 04:42:04;;;;;;;8.40;2.60;;;;;;;5.83;82.34;99353.16;4992857;28;20226;-77
2022/02/19 04:44:30;;;;;;;6.22;2.25;;;;;;;5.82;81.99;99350.56;4993205;28;20219;-76
2022/02/19 04:46:57;;;;;;;9.93;3.15;;;;;;;5.77;82.00;99344.53;4992514;28;20184;-77
2022/02/19 04:49:24;;;;;;;6.30;2.05;;;;;;;5.87;82.18;99350.34;4992755;28;20199;-76
2022/02/19 04:51:50;;;;;;;9.90;2.60;;;;;;;5.82;82.07;99346.06;4992595;28;20231;-77
2022/02/19 04:54:17;;;;;;;7.85;2.30;;;;;;;5.78;82.14;99354.28;4992473;28;20241;-77
2022/02/19 04:56:45;;;;;;;6.90;2.20;;;;;;;5.80;82.20;99352.41;4991049;28;20657;-77
2022/02/19 04:59:12;;;;;;;10.48;2.42;;;;;;;5.72;82.42;99357.19;4992262;28;20294;-77
2022/02/19 05:01:39;;;;;;;11.80;2.10;;;;;;;5.71;83.11;99360.81;4992755;28;20195;-76
2022/02/19 05:04:06;;;;;;;6.55;2.33;;;;;;;5.71;82.56;99360.81;4992600;28;20204;-76
2022/02/19 05:06:33;;;;;;;8.90;2.67;;;;;;;5.72;83.29;99367.88;4992274;28;20309;-76
2022/02/19 05:09:00;;;;;;;7.68;2.20;;;;;;;5.68;83.01;99371.66;4992629;28;20280;-76
2022/02/19 05:11:26;;;;;;;13.90;2.95;;;;;;;5.69;83.37;99363.56;4992531;28;20656;-76
2022/02/19 05:13:54;;;;;;;3.53;2.00;;;;;;;5.76;82.90;99374.84;4992369;28;20298;-76
2022/02/19 05:16:21;;;;;;;8.77;2.28;;;;;;;5.79;83.03;99370.25;4984951;28;20211;-76
2022/02/19 05:18:48;;;;;;;3.35;1.77;;;;;;;5.71;83.17;99380.38;4993009;28;20278;-76
2022/02/19 05:21:14;;;;;;;5.90;1.95;;;;;;;5.73;83.80;99383.88;4993066;28;20204;-76
2022/02/19 05:23:41;;;;;;;6.85;2.30;;;;;;;5.70;83.63;99381.34;4992756;28;20182;-76
2022/02/19 05:26:08;;;;;;;8.90;2.00;;;;;;;5.65;84.62;99380.63;4992277;28;20207;-76
2022/02/19 05:28:34;;;;;;;6.22;2.33;;;;;;;5.69;84.60;99384.91;4992069;28;20288;-76
2022/02/19 05:31:03;;;;;;;10.90;2.15;;;;;;;5.71;84.41;99385.72;4992144;28;20191;-76
2022/02/19 05:33:30;;;;;;;10.90;2.25;;;;;;;5.62;85.05;99391.47;4992400;28;20604;-76
2022/02/19 05:35:57;;;;;;;8.52;2.55;;;;;;;5.65;85.28;99396.66;4991648;28;20705;-76
2022/02/19 05:38:25;;;;;;;17.10;2.28;;;;;;;5.61;84.93;99392.41;4992152;28;20198;-76
2022/02/19 05:40:52;;;;;;;4.75;2.30;;;;;;;5.55;85.27;99381.97;4989905;28;20245;-76
2022/02/19 05:43:19;;;;;;;7.32;2.25;;;;;;;5.49;86.04;99395.56;4992050;28;20282;-76
2022/02/19 05:45:46;;;;;;;5.90;2.30;;;;;;;5.48;86.22;99397.38;4991661;28;20218;-76
2022/02/19 05:48:14;;;;;;;7.55;2.45;;;;;;;5.53;86.08;99400.72;4992203;28;20640;-76
2022/02/19 05:50:41;;;;;;;5.90;1.73;;;;;;;5.37;86.64;99392.44;4992026;28;20199;-76
2022/02/19 05:53:08;;;;;;;9.27;2.30;;;;;;;5.36;87.40;99393.41;4992061;28;20234;-76
2022/02/19 05:55:35;;;;;;;5.70;2.20;;;;;;;5.29;88.26;99396.34;4991490;28;20191;-76
2022/02/19 05:58:02;;;;;;;7.53;2.10;;;;;;;5.33;88.37;99395.31;4991493;28;20209;-76
2022/02/19 06:00:28;;;;;;;7.80;2.30;;;;;;;5.31;88.37;99397.16;4991734;28;20277;-76
2022/02/19 06:02:55;;;;;;;9.68;2.13;;;;;;;5.32;88.58;99417.59;4990990;28;20285;-76
2022/02/19 06:05:23;;;;;;;8.57;2.10;;;;;;;5.35;88.69;99415.66;4991820;28;20327;-76
2022/02/19 06:07:50;;;;;;;7.43;2.25;;;;;;;5.36;88.76;99416.53;4991923;28;20296;-76
2022/02/19 06:10:16;;;;;;;12.02;2.22;;;;;;;5.23;89.58;99422.38;4991857;28;20203;-76
2022/02/19 06:12:43;;;;;;;6.60;2.08;;;;;;;5.23;90.09;99430.38;4994977;28;20206;-76
2022/02/19 06:15:10;;;;;;;11.25;2.00;;;;;;;5.30;89.61;99440.81;4994339;28;20203;-76
2022/02/19 06:17:37;;;;;;;10.55;1.88;;;;;;;5.22;90.39;99439.31;4995490;28;20733;-76
2022/02/19 06:20:04;;;;;;;9.10;2.75;;;;;;;5.31;90.04;99448.75;4995464;28;20231;-76
2022/02/19 06:22:32;;;;;;;12.73;2.58;;;;;;;5.23;91.07;99443.72;4995091;28;20206;-76
2022/02/19 06:24:59;;;;;;;6.57;2.17;;;;;;;5.30;90.85;99449.69;4995648;28;20626;-75
2022/02/19 06:27:25;;;;;;;9.82;2.60;;;;;;;5.34;90.86;99453.13;4994988;28;20282;-76
2022/02/19 06:29:52;;;;;;;6.35;1.85;;;;;;;5.35;90.14;99457.53;4994920;28;20317;-75
2022/02/19 06:32:19;;;;;;;4.55;2.10;;;;;;;5.16;91.60;99458.25;4995471;28;20674;-77
2022/02/19 06:34:45;;;;;;;8.15;2.10;;;;;;;5.13;92.08;99461.03;4995222;28;20219;-77
2022/02/19 06:37:12;;;;;;;5.90;2.10;;;;;;;5.04;92.77;99472.03;4994737;28;20294;-76
2022/02/19 06:39:40;;;;;;;8.65;2.33;;;;;;;5.00;94.56;99478.44;4995065;28;20288;-75
2022/02/19 06:42:07;;;;;;;10.20;3.00;;;;;;;4.87;95.30;99470.00;4995261;28;20564;-76
2022/02/19 06:44:33;;;;;;;9.75;2.20;;;;;;;5.00;94.76;99470.44;4995076;28;20657;-77
2022/02/19 06:47:00;;;;;;;9.25;2.80;;;;;;;4.91;95.08;99470.78;4994901;28;20222;-77
2022/02/19 06:49:27;;;;;;;6.30;2.35;;;;;;;4.95;96.31;99483.03;4995635;28;20205;-78
2022/02/19 06:51:53;;;;;;;5.80;2.28;;;;;;;4.89;95.72;99478.81;5005704;28;20205;-77
2022/02/19 06:54:20;;;;;;;10.48;2.20;;;;;;;4.92;96.14;99485.84;4994511;28;20241;-75
2022/02/19 06:56:48;;;;;;;10.43;2.90;;;;;;;4.90;95.62;99498.38;4990444;28;20290;-77
2022/02/19 06:59:14;;;;;;;6.97;2.20;;;;;;;4.94;95.85;99494.66;4987061;28;20217;-77
2022/02/19 07:01:41;;;;;;;6.90;2.20;;;;;;;4.91;96.88;99494.78;4993019;28;20635;-77
2022/02/19 07:04:08;;;;;;;8.43;2.35;;;;;;;4.97;96.00;99494.53;4992515;28;20231;-78
2022/02/19 07:06:35;;;;;;;10.80;2.45;;;;;;;4.95;96.56;99501.72;4991321;28;20641;-79
2022/02/19 07:09:02;;;;;;;9.30;2.35;;;;;;;4.99;95.61;99496.22;4975176;28;20242;-78
2022/02/19 07:11:29;;;;;;;10.20;3.03;;;;;;;5.11;95.73;99504.69;4981813;28;20285;-77
2022/02/19 07:13:56;;;;;;;11.95;2.60;;;;;;;5.31;93.84;99507.47;4974602;28;20211;-78
2022/02/19 07:16:23;;;;;;;10.40;2.20;;;;;;;5.13;94.49;99514.41;4986854;28;20284;-78
2022/02/19 07:18:52;;;;;;;10.10;2.63;;;;;;;5.20;95.13;99507.91;4994731;28;20626;-79
2022/02/19 07:21:19;;;;;;;8.32;2.88;;;;;;;5.24;94.66;99514.00;4976085;28;20216;-77
2022/02/19 07:23:46;;;;;;;7.70;2.00;;;;;;;5.22;94.52;99519.41;4975228;28;20283;-76
2022/02/19 07:26:12;;;;;;;9.40;2.60;;;;;;;5.15;95.50;99520.53;4975256;28;20209;-77
2022/02/19 07:28:39;;;;;;;6.22;2.30;;;;;;;5.18;95.20;99533.78;4974698;28;20212;-77
2022/02/19 07:31:08;;;;;;;6.20;2.65;;;;;;;5.21;95.27;99538.13;4975417;28;20208;-76
2022/02/19 07:33:34;;;;;;;14.02;3.05;;;;;;;5.23;95.18;99546.97;4974870;28;20227;-77
2022/02/19 07:36:01;;;;;;;13.30;2.75;;;;;;;5.41;94.16;99550.75;4975076;28;20291;-78
2022/02/19 07:38:28;;;;;;;6.95;2.45;;;;;;;5.47;93.57;99553.16;4974829;28;20243;-76
2022/02/19 07:40:54;;;;;;;5.75;2.15;;;;;;;5.47;93.47;99560.31;4975219;28;20267;-78
2022/02/19 07:43:21;;;;;;;10.57;2.45;;;;;;;5.46;93.32;99567.47;4974860;28;20660;-78
2022/02/19 07:45:48;;;;;;;11.10;2.40;;;;;;;5.45;93.28;99573.75;4974676;28;20322;-76
2022/02/19 07:48:16;;;;;;;11.07;2.40;;;;;;;5.48;93.04;99575.44;4975221;28;20203;-78
2022/02/19 07:58:55;;;;;;;7.78;2.20;;;;;;;5.34;94.52;99587.50;4974893;28;20231;-77
2022/02/19 08:01:22;;;;;;;9.75;2.50;;;;;;;5.59;92.86;99582.09;4974187;28;20213;-76
2022/02/19 08:03:50;;;;;;;6.78;2.95;;;;;;;5.66;91.76;99590.75;4974561;28;20195;-76
2022/02/19 08:06:17;;;;;;;11.93;3.13;;;;;;;5.88;90.09;99596.16;4974154;28;20231;-78
2022/02/19 08:08:44;;;;;;;10.77;2.75;;;;;;;5.85;89.81;99590.91;4974639;28;20722;-77
2022/02/19 08:11:10;;;;;;;7.57;2.28;;;;;;;5.93;89.39;99602.16;4974170;28;20278;-76
2022/02/19 08:13:37;;;;;;;7.15;2.35;;;;;;;6.19;88.51;99609.19;4974491;28;20568;-79
2022/02/19 08:16:04;;;;;;;6.70;2.53;;;;;;;6.30;86.30;99602.53;4973945;28;20295;-79
2022/02/19 08:18:31;;;;;;;11.18;2.75;;;;;;;6.23;87.16;99607.25;4974126;28;20236;-77
2022/02/19 08:20:59;;;;;;;7.60;2.70;;;;;;;6.24;87.54;99612.56;4978495;28;20192;-78
2022/02/19 08:23:26;;;;;;;9.55;2.85;;;;;;;6.23;87.13;99620.63;4990565;28;20546;-77
2022/02/19 08:25:52;;;;;;;13.30;2.28;;;;;;;6.01;88.25;99624.13;4986439;28;20223;-78
2022/02/19 08:28:20;;;;;;;4.97;2.05;;;;;;;6.03;88.47;99629.44;4992710;28;20283;-77
2022/02/19 08:30:47;;;;;;;8.95;1.75;;;;;;;6.13;87.76;99636.19;4993365;28;20206;-77
2022/02/19 08:33:15;;;;;;;8.45;2.83;;;;;;;6.30;87.09;99635.50;4991186;28;20197;-77
2022/02/19 08:35:42;;;;;;;9.25;2.72;;;;;;;6.28;86.87;99641.84;4990942;28;20717;-79
2022/02/19 08:38:11;;;;;;;11.27;2.70;;;;;;;6.29;86.74;99640.91;4993409;28;20195;-79
2022/02/19 08:40:38;;;;;;;9.55;2.85;;;;;;;6.15;87.11;99649.47;4993143;28;20202;-77
2022/02/19 08:43:05;;;;;;;8.43;3.28;;;;;;;6.14;87.75;99659.28;4992419;28;20205;-77
2022/02/19 08:45:32;;;;;;;7.97;3.15;;;;;;;6.21;86.92;99654.59;4989112;28;20201;-78
2022/02/19 08:48:04;;;;;;;10.35;2.58;;;;;;;6.17;87.70;99664.53;4993027;28;20606;-78
2022/02/19 08:50:31;;;;;;;9.23;2.60;;;;;;;6.16;87.20;99656.56;4992669;28;20191;-77
2022/02/19 08:52:58;;;;;;;5.88;2.40;;;;;;;6.14;87.23;99672.66;4992136;28;20194;-78
2022/02/19 08:55:27;;;;;;;9.18;2.60;;;;;;;5.95;89.75;99669.84;4993205;28;20638;-77
2022/02/19 08:57:54;;;;;;;6.90;1.73;;;;;;;6.00;89.26;99678.53;4992266;28;20286;-77
2022/02/19 09:00:21;;;;;;;9.65;2.22;;;;;;;5.79;91.44;99682.88;4992302;28;20673;-80
2022/02/19 09:02:48;;;;;;;11.40;2.92;;;;;;;6.02;91.06;99691.84;4991568;28;20951;-79
2022/02/19 09:05:16;;;;;;;6.05;2.00;;;;;;;6.05;89.74;99686.38;4993006;28;20293;-79
2022/02/19 09:07:43;;;;;;;5.93;2.30;;;;;;;6.18;88.59;99692.16;4991418;28;20223;-79
2022/02/19 09:10:12;;;;;;;7.32;2.17;;;;;;;5.99;89.92;99695.53;4992698;28;20187;-80
2022/02/19 09:12:45;;;;;;;12.20;2.50;;;;;;;6.15;90.17;99684.22;4991279;28;20294;-78
2022/02/19 09:15:13;;;;;;;5.40;2.30;;;;;;;6.31;88.63;99697.88;4992874;28;20234;-80
2022/02/19 09:17:39;;;;;;;7.78;2.70;;;;;;;6.44;87.51;99693.78;4992528;28;20634;-79
2022/02/19 09:20:08;;;;;;;7.35;2.85;;;;;;;6.58;86.47;99685.19;4993130;28;20286;-79
2022/02/19 09:22:34;;;;;;;8.90;2.63;;;;;;;6.25;88.90;99701.66;4992363;28;20593;-78
2022/02/19 09:25:01;;;;;;;9.85;3.17;;;;;;;6.47;87.04;99705.25;4993055;28;20210;-78
2022/02/19 09:27:28;;;;;;;7.38;2.38;;;;;;;6.35;87.91;99700.34;4992105;28;20234;-78
2022/02/19 09:29:56;;;;;;;6.72;2.60;;;;;;;6.47;87.79;99704.38;4992422;28;20183;-81
2022/02/19 09:32:23;;;;;;;18.35;3.78;;;;;;;6.77;86.26;99702.25;4992373;28;20286;-80
2022/02/19 09:34:50;;;;;;;9.07;2.35;;;;;;;6.61;85.65;99702.00;4991986;28;20230;-79
2022/02/19 09:37:17;;;;;;;7.10;2.38;;;;;;;6.65;86.17;99697.44;4992342;28;20198;-77
2022/02/19 09:39:44;;;;;;;9.80;3.15;;;;;;;6.83;84.80;99699.34;4992603;28;20661;-76
2022/02/19 09:42:12;;;;;;;10.38;3.00;;;;;;;6.60;86.85;99689.59;4992405;28;20620;-76
2022/02/19 09:44:39;;;;;;;4.68;2.30;;;;;;;6.68;85.69;99702.63;4991958;28;20566;-77
2022/02/19 09:47:07;;;;;;;9.63;2.70;;;;;;;6.78;85.42;99690.59;4994520;28;20213;-80
2022/02/19 09:49:36;;;;;;;12.00;4.35;;;;;;;6.70;84.90;99690.06;4996178;28;20206;-78
2022/02/19 09:52:03;;;;;;;11.77;3.65;;;;;;;6.75;85.75;99679.19;4996089;28;20191;-76
2022/02/19 09:54:30;;;;;;;6.00;2.50;;;;;;;7.06;83.88;99686.81;4995429;28;20393;-75
2022/02/19 09:56:56;;;;;;;8.18;3.05;;;;;;;6.93;83.75;99681.09;4995452;28;20245;-78
2022/02/19 09:59:23;;;;;;;6.25;2.65;;;;;;;6.77;83.45;99688.03;4991564;28;20672;-80
2022/02/19 10:02:03;;;;;;;4.90;2.40;;;;;;;6.80;82.87;99685.22;4995006;28;20290;-79
2022/02/19 10:04:32;;;;;;;10.90;3.47;;;;;;;6.84;83.03;99685.00;4994624;28;20294;-79
2022/02/19 10:07:00;;;;;;;16.45;3.17;;;;;;;6.96;81.87;99680.09;4993556;28;20656;-78
2022/02/19 10:09:28;;;;;;;7.65;2.60;;;;;;;6.93;82.16;99689.13;4995438;28;20211;-75
2022/02/19 10:11:55;;;;;;;9.60;3.35;;;;;;;7.08;79.03;99685.81;4995343;28;20211;-79
2022/02/19 10:14:26;;;;;;;9.30;2.65;;;;;;;6.92;79.86;99691.84;4995194;28;20663;-79
2022/02/19 10:17:16;;;;;;;7.07;2.38;;;;;;;6.97;79.18;99695.22;4994481;28;20212;-77
2022/02/19 10:19:51;;;;;;;12.32;2.45;;;;;;;7.15;78.40;99690.91;4993822;28;20234;-78
2022/02/19 10:22:20;;;;;;;10.70;2.55;;;;;;;7.03;76.41;99685.13;4994839;28;20238;-78
2022/02/19 10:24:48;;;;;;;10.57;2.60;;;;;;;6.80;78.19;99699.44;4994638;28;20238;-78
2022/02/19 10:27:15;;;;;;;7.40;2.10;;;;;;;7.08;76.75;99707.22;4994324;28;20223;-77
2022/02/19 10:29:53;;;;;;;7.50;2.42;;;;;;;7.16;76.80;99706.03;4995214;28;20215;-76
2022/02/19 10:32:20;;;;;;;13.82;2.75;;;;;;;7.38;74.97;99698.81;4994484;28;20215;-77
2022/02/19 10:35:12;;;;;;;9.65;2.67;;;;;;;7.43;72.11;99701.28;4995155;28;20615;-75
2022/02/19 10:37:44;;;;;;;6.60;2.40;;;;;;;7.42;72.14;99689.72;4994647;28;20250;-77
2022/02/19 10:40:29;;;;;;;15.50;7.78;;;;;;;7.41;71.28;99697.81;4994924;28;20318;-76
2022/02/19 10:42:57;;;;;;;9.43;2.15;;;;;;;7.26;69.74;99694.84;4993818;28;20202;-77
2022/02/19 10:45:25;;;;;;;11.15;2.58;;;;;;;7.32;71.80;99691.03;4994887;28;20203;-78
2022/02/19 10:47:53;;;;;;;8.55;2.78;;;;;;;7.27;72.86;99695.72;4994127;28;20227;-77
2022/02/19 10:50:21;;;;;;;6.85;2.60;;;;;;;7.50;70.80;99694.72;4994210;28;20214;-77
2022/02/19 10:52:58;;;;;;;10.25;2.50;;;;;;;7.23;71.27;99678.91;4995174;28;20238;-77
2022/02/19 10:55:29;;;;;;;10.07;2.28;;;;;;;7.35;72.30;99685.56;4994834;28;20203;-77
2022/02/19 10:57:59;;;;;;;3.55;1.90;;;;;;;7.32;72.33;99689.22;4994014;28;20191;-76
2022/02/19 11:00:27;;;;;;;9.80;2.70;;;;;;;7.99;68.72;99688.97;4995089;28;20188;-77
2022/02/19 11:02:54;;;;;;;7.50;2.63;;;;;;;8.35;66.42;99689.06;4995041;28;20226;-78
2022/02/19 11:05:23;;;;;;;8.70;3.45;;;;;;;8.74;62.63;99677.38;4994570;28;20195;-79
2022/02/19 11:07:51;;;;;;;14.27;3.08;;;;;;;9.02;60.99;99678.66;4994277;28;20934;-79
2022/02/19 11:10:19;;;;;;;13.52;4.10;;;;;;;9.11;60.94;99668.34;4994599;28;20211;-81
2022/02/19 11:12:46;;;;;;;8.40;1.90;;;;;;;8.64;61.54;99687.69;4995408;28;20617;-80
2022/02/19 11:15:13;;;;;;;11.77;2.90;;;;;;;8.63;61.52;99674.34;4995542;28;20589;-81
2022/02/19 11:17:40;;;;;;;7.00;3.60;;;;;;;8.65;61.34;99685.88;4994866;28;20615;-80
2022/02/19 11:20:09;;;;;;;11.23;3.80;;;;;;;8.64;61.42;99681.44;4995018;28;20195;-78
2022/02/19 11:22:40;;;;;;;10.57;2.95;;;;;;;8.47;62.49;99669.72;4993852;28;20236;-76
2022/02/19 11:25:09;;;;;;;6.72;3.47;;;;;;;8.18;62.00;99671.06;4995098;28;20605;-76
2022/02/19 11:27:40;;;;;;;11.10;2.40;;;;;;;8.37;61.65;99663.03;4994143;28;20278;-77
2022/02/19 11:30:10;;;;;;;6.15;2.47;;;;;;;8.40;61.07;99662.91;5006293;28;20281;-76
2022/02/19 11:32:38;;;;;;;7.97;2.92;;;;;;;8.19;63.49;99663.91;4994202;28;20235;-77
2022/02/19 11:35:07;;;;;;;11.38;2.22;;;;;;;8.17;63.11;99655.94;4994635;28;20211;-77
2022/02/19 11:37:40;;;;;;;6.43;2.22;;;;;;;8.10;63.42;99663.38;4994975;28;20222;-77
2022/02/19 11:40:10;;;;;;;5.28;1.70;;;;;;;7.91;62.89;99651.78;4994529;28;20225;-77
2022/02/19 11:42:45;;;;;;;6.72;2.30;;;;;;;8.02;63.26;99659.31;4993435;28;20234;-77
2022/02/19 11:45:25;;;;;;;7.95;2.38;;;;;;;7.85;60.21;99652.94;4977721;28;20210;-77
2022/02/19 11:48:12;;;;;;;6.50;1.75;;;;;;;7.78;60.20;99648.81;4974505;28;20211;-77
2022/02/19 11:50:42;;;;;;;4.22;1.80;;;;;;;7.66;62.11;99638.63;4974569;28;20196;-76